Time;durP1;ratioP1;P1;durP2;ratioP2;P2;SDS_P1;SDS_P2;PMS_P1;PMS_P2;Temp;Humidity;BMP_temperature;BMP_pressure;BME280_temperature;BME280_humidity;BME280_pressure;Samples;Min_cycle;Max_cycle;Signal;HPM_P1;HPM_P2
2023/03/20 00:02:25;;;;;;;13.13;12.32;;;;;;;;;;4993566;28;20030;-60
2023/03/20 00:04:51;;;;;;;12.32;11.63;;;;;;;;;;4993342;28;20038;-59
2023/03/20 00:07:16;;;;;;;11.68;10.98;;;;;;;;;;4993583;28;20113;-58
2023/03/20 00:09:42;;;;;;;12.57;11.77;;;;;;;;;;4993316;28;20176;-47
2023/03/20 00:12:15;;;;;;;12.77;11.98;;;;;;;;;;4991625;28;20062;-48
2023/03/20 00:14:40;;;;;;;12.00;11.30;;;;;;;;;;4995207;28;20040;-48
2023/03/20 00:17:18;;;;;;;12.88;12.07;;;;;;;;;;4991604;28;20467;-51
2023/03/20 00:19:44;;;;;;;11.63;10.93;;;;;;;;;;4994533;28;20149;-58
2023/03/20 00:22:09;;;;;;;12.95;12.15;;;;;;;;;;4993054;28;20145;-58
2023/03/20 00:24:35;;;;;;;11.98;11.27;;;;;;;;;;4994528;28;20137;-49
2023/03/20 00:27:01;;;;;;;12.20;11.50;;;;;;;;;;4990860;28;20105;-50
2023/03/20 00:29:29;;;;;;;11.82;11.13;;;;;;;;;;4991721;28;20065;-57
2023/03/20 00:31:56;;;;;;;11.35;10.65;;;;;;;;;;4996419;28;20038;-58
2023/03/20 00:34:25;;;;;;;13.02;12.23;;;;;;;;;;4991842;28;20092;-58
2023/03/20 00:36:52;;;;;;;12.13;11.43;;;;;;;;;;4993215;28;20073;-58
2023/03/20 00:39:18;;;;;;;13.23;12.43;;;;;;;;;;4992600;28;20115;-58
2023/03/20 00:41:48;;;;;;;12.30;11.50;;;;;;;;;;4991123;28;20475;-58
2023/03/20 00:44:37;;;;;;;13.38;12.57;;;;;;;;;;4995665;28;20041;-58
2023/03/20 00:47:15;;;;;;;11.57;10.88;;;;;;;;;;4992771;28;20124;-58
2023/03/20 00:49:41;;;;;;;11.35;10.63;;;;;;;;;;4991285;28;20485;-57
2023/03/20 00:52:11;;;;;;;12.77;11.98;;;;;;;;;;4992082;28;20042;-59
2023/03/20 00:54:37;;;;;;;12.68;11.88;;;;;;;;;;4992121;28;20034;-57
2023/03/20 00:57:07;;;;;;;12.18;11.48;;;;;;;;;;4993162;28;20057;-57
2023/03/20 00:59:38;;;;;;;13.40;12.60;;;;;;;;;;4990327;28;20038;-59
2023/03/20 01:02:04;;;;;;;12.30;11.60;;;;;;;;;;4989711;28;20048;-57
2023/03/20 01:04:41;;;;;;;12.35;11.65;;;;;;;;;;4994771;28;20046;-56
2023/03/20 01:07:11;;;;;;;13.18;12.32;;;;;;;;;;4994215;28;20072;-54
2023/03/20 01:09:36;;;;;;;13.30;12.45;;;;;;;;;;4993912;28;20026;-58
2023/03/20 01:12:03;;;;;;;12.27;11.57;;;;;;;;;;4991942;28;20039;-57
2023/03/20 01:14:28;;;;;;;13.02;12.23;;;;;;;;;;4995109;28;20549;-57
2023/03/20 01:16:54;;;;;;;12.98;12.23;;;;;;;;;;4993475;28;20057;-57
2023/03/20 01:19:19;;;;;;;13.02;12.18;;;;;;;;;;4993171;28;20038;-57
2023/03/20 01:21:45;;;;;;;12.52;11.65;;;;;;;;;;4996427;28;20537;-56
2023/03/20 01:24:10;;;;;;;12.52;11.75;;;;;;;;;;4997269;28;20038;-55
2023/03/20 01:26:41;;;;;;;11.90;11.20;;;;;;;;;;5004557;28;20036;-56
2023/03/20 01:29:20;;;;;;;13.95;13.15;;;;;;;;;;4996767;28;20530;-56
2023/03/20 01:31:46;;;;;;;12.50;11.80;;;;;;;;;;4993918;28;20041;-57
2023/03/20 01:34:12;;;;;;;13.15;12.35;;;;;;;;;;4996913;28;20056;-56
2023/03/20 01:36:37;;;;;;;12.50;11.80;;;;;;;;;;4996661;28;20074;-56
2023/03/20 01:39:03;;;;;;;13.55;12.75;;;;;;;;;;4995457;28;20575;-56
2023/03/20 01:41:30;;;;;;;12.05;11.27;;;;;;;;;;4997649;28;20487;-56
2023/03/20 01:43:55;;;;;;;13.25;12.45;;;;;;;;;;5011947;28;20103;-56
2023/03/20 01:46:27;;;;;;;12.27;11.48;;;;;;;;;;4995694;28;20042;-57
2023/03/20 01:48:52;;;;;;;13.27;12.38;;;;;;;;;;4997279;28;20066;-57
2023/03/20 01:51:23;;;;;;;11.90;11.20;;;;;;;;;;4994451;28;20684;-57
2023/03/20 01:53:59;;;;;;;12.32;11.43;;;;;;;;;;5012129;28;20025;-56
2023/03/20 01:56:25;;;;;;;11.93;11.23;;;;;;;;;;5010139;28;20373;-57
2023/03/20 01:59:02;;;;;;;12.18;11.48;;;;;;;;;;4993656;28;20030;-57
2023/03/20 02:01:29;;;;;;;13.38;12.48;;;;;;;;;;5002529;28;20166;-55
2023/03/20 02:03:55;;;;;;;13.10;12.25;;;;;;;;;;4999596;28;20030;-57
2023/03/20 02:06:22;;;;;;;12.90;12.10;;;;;;;;;;4993875;28;20414;-57
2023/03/20 02:08:50;;;;;;;13.07;12.27;;;;;;;;;;4996084;28;20048;-58
2023/03/20 02:11:18;;;;;;;12.57;11.77;;;;;;;;;;4997089;28;20046;-58
2023/03/20 02:13:45;;;;;;;12.43;11.63;;;;;;;;;;5014160;28;20360;-58
2023/03/20 02:16:13;;;;;;;13.68;12.88;;;;;;;;;;4996349;28;20113;-59
2023/03/20 02:18:42;;;;;;;12.45;11.70;;;;;;;;;;4997603;28;20092;-57
2023/03/20 02:21:31;;;;;;;12.70;11.90;;;;;;;;;;4995989;28;20121;-57
2023/03/20 02:24:18;;;;;;;12.88;12.07;;;;;;;;;;4996484;28;20030;-57
2023/03/20 02:27:08;;;;;;;12.35;11.55;;;;;;;;;;4999084;28;20290;-57
2023/03/20 02:29:52;;;;;;;12.93;12.13;;;;;;;;;;4998453;28;20110;-57
2023/03/20 02:32:36;;;;;;;13.05;12.25;;;;;;;;;;4997789;28;20041;-56
2023/03/20 02:35:29;;;;;;;12.05;11.35;;;;;;;;;;4994726;28;20137;-57
2023/03/20 02:38:14;;;;;;;12.07;11.35;;;;;;;;;;4996451;28;20060;-56
2023/03/20 02:41:09;;;;;;;13.13;12.27;;;;;;;;;;4995124;28;20030;-56
2023/03/20 02:43:52;;;;;;;11.98;11.18;;;;;;;;;;4993884;28;20030;-56
2023/03/20 02:46:44;;;;;;;13.20;12.40;;;;;;;;;;4995053;28;20023;-58
2023/03/20 02:49:30;;;;;;;;;;;;;;;;;;4990858;28;20515;-58
2023/03/20 02:52:03;;;;;;;11.65;10.95;;;;;;;;;;4995769;28;19928;-58
2023/03/20 02:54:51;;;;;;;12.20;11.40;;;;;;;;;;4994036;28;20156;-59
2023/03/20 02:57:27;;;;;;;12.95;12.15;;;;;;;;;;4993785;28;20054;-56
2023/03/20 02:59:58;;;;;;;13.63;12.77;;;;;;;;;;4994742;28;20048;-48
2023/03/20 03:02:41;;;;;;;13.45;12.63;;;;;;;;;;4992662;28;20037;-48
2023/03/20 03:05:15;;;;;;;13.65;12.75;;;;;;;;;;4991945;28;20034;-48
2023/03/20 03:07:45;;;;;;;13.20;12.30;;;;;;;;;;4991458;28;20546;-48
2023/03/20 03:10:26;;;;;;;13.27;12.45;;;;;;;;;;4990678;28;20053;-49
2023/03/20 03:12:53;;;;;;;13.23;12.43;;;;;;;;;;4997486;28;20030;-50
2023/03/20 03:15:31;;;;;;;14.02;13.13;;;;;;;;;;4993492;28;20411;-49
2023/03/20 03:17:59;;;;;;;12.60;11.85;;;;;;;;;;4992099;28;20037;-49
2023/03/20 03:20:31;;;;;;;12.98;12.18;;;;;;;;;;4994899;28;20532;-53
2023/03/20 03:22:57;;;;;;;13.02;11.98;;;;;;;;;;4995665;28;20030;-49
2023/03/20 03:25:27;;;;;;;14.13;13.23;;;;;;;;;;4997410;28;20046;-52
2023/03/20 03:28:04;;;;;;;13.43;12.63;;;;;;;;;;5007504;28;20042;-50
2023/03/20 03:30:37;;;;;;;13.40;12.45;;;;;;;;;;4991269;28;20049;-50
2023/03/20 03:33:20;;;;;;;15.23;14.23;;;;;;;;;;4993064;28;20183;-48
2023/03/20 03:35:47;;;;;;;13.68;12.77;;;;;;;;;;4992053;28;20053;-47
2023/03/20 03:38:30;;;;;;;14.32;13.40;;;;;;;;;;4990169;28;20034;-50
2023/03/20 03:40:58;;;;;;;13.35;12.55;;;;;;;;;;5009815;28;20037;-50
2023/03/20 03:43:30;;;;;;;13.48;12.57;;;;;;;;;;4993038;28;20053;-51
2023/03/20 03:46:07;;;;;;;;;;;;;;;;;;4993606;28;20029;-51
2023/03/20 03:48:39;;;;;;;12.20;11.48;;;;;;;;;;4995425;28;19928;-50
2023/03/20 03:51:13;;;;;;;14.02;13.07;;;;;;;;;;4994920;28;20421;-50
2023/03/20 03:53:47;;;;;;;15.27;14.13;;;;;;;;;;4994760;28;20045;-52
2023/03/20 03:56:15;;;;;;;14.18;13.30;;;;;;;;;;4994575;28;20507;-51
2023/03/20 03:58:43;;;;;;;15.88;14.68;;;;;;;;;;4994780;28;20053;-52
2023/03/20 04:01:11;;;;;;;14.52;13.35;;;;;;;;;;4994377;28;20034;-48
2023/03/20 04:03:40;;;;;;;13.63;12.65;;;;;;;;;;4997696;28;20042;-54
2023/03/20 04:06:09;;;;;;;13.90;13.10;;;;;;;;;;4994800;28;20053;-50
2023/03/20 04:08:34;;;;;;;14.52;13.40;;;;;;;;;;4992303;28;20136;-52
2023/03/20 04:10:59;;;;;;;13.63;12.77;;;;;;;;;;4991961;28;20065;-58
2023/03/20 04:13:25;;;;;;;14.55;13.65;;;;;;;;;;4993597;28;20042;-58
2023/03/20 04:15:51;;;;;;;13.82;13.00;;;;;;;;;;4992408;28;20045;-59
2023/03/20 04:18:17;;;;;;;14.60;13.52;;;;;;;;;;4992813;28;20399;-58
2023/03/20 04:20:45;;;;;;;14.45;13.45;;;;;;;;;;4993527;28;20038;-58
2023/03/20 04:23:10;;;;;;;13.68;12.80;;;;;;;;;;4995735;28;20034;-57
2023/03/20 04:25:35;;;;;;;13.07;12.27;;;;;;;;;;4994211;28;20094;-57
2023/03/20 04:28:01;;;;;;;13.55;12.65;;;;;;;;;;4993525;28;20441;-58
2023/03/20 04:30:26;;;;;;;13.10;12.10;;;;;;;;;;4992167;28;20053;-57
2023/03/20 04:32:52;;;;;;;11.85;11.15;;;;;;;;;;4993441;28;20491;-58
2023/03/20 04:35:17;;;;;;;15.10;14.00;;;;;;;;;;4992873;28;20085;-50
2023/03/20 04:37:42;;;;;;;14.73;13.63;;;;;;;;;;4997587;28;20069;-57
2023/03/20 04:40:09;;;;;;;12.88;12.07;;;;;;;;;;4995437;28;20038;-56
2023/03/20 04:42:34;;;;;;;13.48;12.63;;;;;;;;;;4996896;28;20079;-47
2023/03/20 04:45:00;;;;;;;14.82;13.90;;;;;;;;;;4993684;28;20037;-50
2023/03/20 04:47:25;;;;;;;13.43;12.63;;;;;;;;;;4990480;28;20341;-58
2023/03/20 04:49:50;;;;;;;14.52;13.63;;;;;;;;;;4993762;28;20038;-59
2023/03/20 04:52:16;;;;;;;13.68;12.77;;;;;;;;;;4994517;28;20388;-59
2023/03/20 04:54:41;;;;;;;13.63;12.63;;;;;;;;;;4995109;28;20030;-57
2023/03/20 04:57:06;;;;;;;14.15;13.25;;;;;;;;;;4993093;28;20038;-55
2023/03/20 04:59:32;;;;;;;14.35;13.45;;;;;;;;;;4992388;28;20038;-57
2023/03/20 05:01:57;;;;;;;15.43;14.23;;;;;;;;;;4995090;28;20483;-49
2023/03/20 05:04:22;;;;;;;15.50;14.50;;;;;;;;;;4993907;28;20030;-57
2023/03/20 05:06:48;;;;;;;14.20;13.27;;;;;;;;;;4992753;28;20563;-57
2023/03/20 05:09:15;;;;;;;14.98;14.07;;;;;;;;;;4993391;28;20113;-56
2023/03/20 05:11:41;;;;;;;15.00;14.00;;;;;;;;;;4993625;28;20095;-57
2023/03/20 05:14:06;;;;;;;16.02;15.13;;;;;;;;;;4990560;28;20041;-57
2023/03/20 05:16:31;;;;;;;13.70;12.88;;;;;;;;;;4990652;28;20057;-56
2023/03/20 05:18:57;;;;;;;14.60;13.60;;;;;;;;;;4991378;28;20516;-57
2023/03/20 05:21:22;;;;;;;12.80;12.00;;;;;;;;;;4995355;28;20034;-50
2023/03/20 05:23:47;;;;;;;14.40;13.50;;;;;;;;;;4993085;28;20038;-57
2023/03/20 05:26:13;;;;;;;14.55;13.38;;;;;;;;;;4992081;28;20084;-58
2023/03/20 05:28:38;;;;;;;22.92;14.30;;;;;;;;;;4994053;28;20030;-48
2023/03/20 05:31:04;;;;;;;15.25;14.20;;;;;;;;;;4994562;28;20570;-57
2023/03/20 05:33:30;;;;;;;14.23;13.35;;;;;;;;;;4991307;28;20145;-47
2023/03/20 05:35:55;;;;;;;13.20;12.40;;;;;;;;;;4994187;28;20038;-46
2023/03/20 05:38:24;;;;;;;13.93;13.05;;;;;;;;;;4990712;28;20054;-47
2023/03/20 05:40:54;;;;;;;13.80;12.93;;;;;;;;;;4992417;28;20044;-56
2023/03/20 05:43:19;;;;;;;13.88;12.98;;;;;;;;;;4990717;28;20088;-58
2023/03/20 05:45:45;;;;;;;15.77;14.77;;;;;;;;;;4991871;28;20061;-55
2023/03/20 05:48:10;;;;;;;13.80;12.95;;;;;;;;;;4992517;28;20122;-57
2023/03/20 05:50:36;;;;;;;14.90;14.00;;;;;;;;;;4992580;28;20120;-57
2023/03/20 05:53:01;;;;;;;15.18;14.18;;;;;;;;;;4991734;28;20572;-58
2023/03/20 05:55:26;;;;;;;14.43;13.57;;;;;;;;;;4992691;28;20038;-52
2023/03/20 05:57:52;;;;;;;13.70;12.90;;;;;;;;;;4994458;28;20113;-59
2023/03/20 06:00:17;;;;;;;14.80;13.90;;;;;;;;;;4995831;28;20036;-59
2023/03/20 06:02:43;;;;;;;15.43;14.50;;;;;;;;;;4997849;28;20034;-59
2023/03/20 06:05:08;;;;;;;14.30;13.40;;;;;;;;;;4995428;28;20042;-58
2023/03/20 06:07:34;;;;;;;15.43;14.52;;;;;;;;;;4996016;28;20515;-57
2023/03/20 06:09:59;;;;;;;15.43;14.32;;;;;;;;;;4995936;28;20038;-57
2023/03/20 06:12:24;;;;;;;15.63;14.73;;;;;;;;;;4993779;28;20125;-58
2023/03/20 06:14:50;;;;;;;15.25;14.25;;;;;;;;;;4993334;28;20038;-56
2023/03/20 06:17:15;;;;;;;16.63;15.48;;;;;;;;;;4999036;28;20030;-58
2023/03/20 06:19:40;;;;;;;14.43;13.57;;;;;;;;;;4997912;28;20057;-47
2023/03/20 06:22:06;;;;;;;13.88;13.07;;;;;;;;;;4997680;28;20053;-48
2023/03/20 06:24:32;;;;;;;16.98;15.52;;;;;;;;;;4996189;28;20049;-50
2023/03/20 06:26:57;;;;;;;14.82;13.90;;;;;;;;;;4995243;28;20070;-49
2023/03/20 06:29:22;;;;;;;15.38;14.35;;;;;;;;;;4995163;28;20121;-50
2023/03/20 06:31:48;;;;;;;14.55;13.65;;;;;;;;;;5006120;28;20033;-50
2023/03/20 06:34:13;;;;;;;14.48;13.57;;;;;;;;;;4994796;28;20076;-47
2023/03/20 06:36:40;;;;;;;14.77;13.85;;;;;;;;;;4994322;28;20117;-56
2023/03/20 06:39:05;;;;;;;14.68;13.48;;;;;;;;;;4996877;28;20034;-56
2023/03/20 06:41:30;;;;;;;14.82;13.93;;;;;;;;;;4998038;28;20553;-57
2023/03/20 06:43:56;;;;;;;14.57;13.68;;;;;;;;;;5000188;28;20030;-57
2023/03/20 06:46:21;;;;;;;15.32;14.32;;;;;;;;;;4992415;28;20045;-57
2023/03/20 06:48:47;;;;;;;14.60;13.70;;;;;;;;;;4995714;28;20034;-57
2023/03/20 06:51:13;;;;;;;14.88;13.98;;;;;;;;;;4995932;28;20046;-56
2023/03/20 06:53:40;;;;;;;15.25;14.32;;;;;;;;;;5001368;28;20030;-47
2023/03/20 06:56:07;;;;;;;16.95;15.77;;;;;;;;;;4993322;28;20041;-56
2023/03/20 06:58:32;;;;;;;14.20;13.30;;;;;;;;;;5005752;28;20053;-50
2023/03/20 07:00:57;;;;;;;14.38;13.45;;;;;;;;;;4994621;28;20391;-49
2023/03/20 07:03:23;;;;;;;14.68;13.68;;;;;;;;;;4994177;28;20089;-58
2023/03/20 07:05:49;;;;;;;15.50;14.50;;;;;;;;;;4992069;28;20022;-51
2023/03/20 07:08:14;;;;;;;16.00;14.82;;;;;;;;;;4994217;28;20113;-57
2023/03/20 07:10:39;;;;;;;14.98;14.07;;;;;;;;;;4994748;28;20050;-50
2023/03/20 07:13:05;;;;;;;15.63;14.63;;;;;;;;;;4995169;28;20053;-49
2023/03/20 07:15:31;;;;;;;16.77;15.68;;;;;;;;;;4994153;28;20030;-49
2023/03/20 07:17:56;;;;;;;15.38;14.23;;;;;;;;;;5008309;28;20026;-51
2023/03/20 07:20:22;;;;;;;15.00;14.10;;;;;;;;;;4995330;28;20049;-48
2023/03/20 07:22:47;;;;;;;14.55;13.55;;;;;;;;;;4994627;28;20022;-49
2023/03/20 07:25:14;;;;;;;15.07;14.18;;;;;;;;;;4993792;28;20037;-49
2023/03/20 07:27:39;;;;;;;14.48;13.57;;;;;;;;;;4996842;28;20033;-58
2023/03/20 07:30:06;;;;;;;14.23;13.15;;;;;;;;;;4994155;28;20395;-57
2023/03/20 07:32:31;;;;;;;16.05;14.95;;;;;;;;;;4993115;28;20038;-57
2023/03/20 07:34:57;;;;;;;14.45;13.55;;;;;;;;;;4992920;28;20053;-58
2023/03/20 07:37:23;;;;;;;14.00;13.05;;;;;;;;;;4996541;28;20710;-56
2023/03/20 07:39:48;;;;;;;15.65;14.55;;;;;;;;;;4993953;28;20033;-57
2023/03/20 07:42:15;;;;;;;14.23;13.32;;;;;;;;;;4994316;28;20065;-56
2023/03/20 07:44:40;;;;;;;14.13;13.23;;;;;;;;;;4992765;28;20026;-47
2023/03/20 07:47:06;;;;;;;15.07;14.07;;;;;;;;;;4989978;28;20450;-48
2023/03/20 07:49:32;;;;;;;14.90;13.98;;;;;;;;;;4992919;28;20045;-57
2023/03/20 07:51:57;;;;;;;15.27;14.35;;;;;;;;;;4991605;28;20030;-58
2023/03/20 07:54:22;;;;;;;15.23;14.23;;;;;;;;;;4991989;28;20141;-58
2023/03/20 07:56:49;;;;;;;16.83;15.68;;;;;;;;;;4994645;28;20049;-57
2023/03/20 07:59:15;;;;;;;16.33;15.00;;;;;;;;;;4991357;28;20606;-59
2023/03/20 08:01:40;;;;;;;17.05;15.80;;;;;;;;;;4995835;28;20067;-59
2023/03/20 08:04:05;;;;;;;15.48;14.55;;;;;;;;;;4993247;28;20049;-58
2023/03/20 08:06:31;;;;;;;16.77;15.73;;;;;;;;;;4992630;28;20053;-58
2023/03/20 08:08:56;;;;;;;14.52;13.63;;;;;;;;;;4990311;28;20099;-58
2023/03/20 08:11:22;;;;;;;15.93;14.90;;;;;;;;;;4992857;28;20045;-50
2023/03/20 08:13:47;;;;;;;15.18;14.15;;;;;;;;;;4995099;28;20129;-58
2023/03/20 08:16:13;;;;;;;15.75;14.65;;;;;;;;;;4995871;28;20034;-57
2023/03/20 08:18:38;;;;;;;17.20;16.00;;;;;;;;;;4993285;28;20624;-57
2023/03/20 08:21:04;;;;;;;17.92;16.58;;;;;;;;;;4996595;28;20128;-54
2023/03/20 08:23:29;;;;;;;16.70;15.63;;;;;;;;;;4995693;28;20058;-50
2023/03/20 08:25:55;;;;;;;15.75;14.60;;;;;;;;;;4993135;28;20054;-54
2023/03/20 08:28:21;;;;;;;17.33;16.00;;;;;;;;;;4991525;28;20038;-56
2023/03/20 08:30:46;;;;;;;17.95;16.75;;;;;;;;;;4992639;28;20059;-56
2023/03/20 08:33:13;;;;;;;16.15;15.05;;;;;;;;;;4995156;28;20467;-57
2023/03/20 08:35:39;;;;;;;18.00;16.80;;;;;;;;;;4992207;28;20458;-58
2023/03/20 08:38:05;;;;;;;17.77;16.63;;;;;;;;;;4991145;28;20038;-58
2023/03/20 08:40:30;;;;;;;17.88;16.67;;;;;;;;;;4989716;28;20092;-58
2023/03/20 08:42:56;;;;;;;19.10;17.77;;;;;;;;;;4992548;28;20034;-58
2023/03/20 08:45:24;;;;;;;16.88;15.70;;;;;;;;;;4992316;28;20076;-57
2023/03/20 08:47:50;;;;;;;15.95;14.95;;;;;;;;;;4990627;28;20109;-57
2023/03/20 08:50:16;;;;;;;18.35;16.20;;;;;;;;;;4993516;28;20113;-58
2023/03/20 08:52:42;;;;;;;16.73;15.50;;;;;;;;;;4993117;28;20049;-57
2023/03/20 08:55:11;;;;;;;15.80;14.80;;;;;;;;;;4994432;28;20038;-57
2023/03/20 08:57:37;;;;;;;18.98;17.67;;;;;;;;;;4986910;28;20080;-57
2023/03/20 09:00:07;;;;;;;16.75;15.65;;;;;;;;;;4991810;28;20430;-58
2023/03/20 09:02:33;;;;;;;18.90;17.45;;;;;;;;;;5004935;28;20046;-57
2023/03/20 09:04:58;;;;;;;18.38;16.98;;;;;;;;;;4994236;28;20064;-57
2023/03/20 09:07:24;;;;;;;17.20;16.10;;;;;;;;;;4991413;28;20096;-58
2023/03/20 09:09:49;;;;;;;18.73;17.45;;;;;;;;;;4991178;28;20113;-55
2023/03/20 09:12:15;;;;;;;17.33;16.13;;;;;;;;;;4991009;28;20117;-57
2023/03/20 09:14:40;;;;;;;18.50;17.30;;;;;;;;;;4990999;28;21348;-56
2023/03/20 09:17:06;;;;;;;16.05;14.95;;;;;;;;;;4991022;28;20041;-57
2023/03/20 09:19:32;;;;;;;18.10;16.23;;;;;;;;;;4993325;28;20042;-56
2023/03/20 09:21:58;;;;;;;17.77;16.20;;;;;;;;;;4995276;28;20053;-56
2023/03/20 09:24:24;;;;;;;16.92;15.93;;;;;;;;;;4990960;28;20121;-57
2023/03/20 09:26:50;;;;;;;17.55;16.35;;;;;;;;;;4993070;28;20026;-56
2023/03/20 09:29:15;;;;;;;17.45;16.30;;;;;;;;;;5000776;28;20036;-56
2023/03/20 09:31:40;;;;;;;19.20;17.52;;;;;;;;;;4993118;28;20056;-58
2023/03/20 09:34:06;;;;;;;16.33;15.27;;;;;;;;;;4991770;28;20049;-57
2023/03/20 09:36:32;;;;;;;18.05;16.85;;;;;;;;;;4993567;28;20062;-57
2023/03/20 09:38:57;;;;;;;17.50;16.20;;;;;;;;;;4992999;28;20046;-57
2023/03/20 09:41:26;;;;;;;19.25;17.67;;;;;;;;;;4994175;28;20511;-57
2023/03/20 09:44:03;;;;;;;18.63;17.27;;;;;;;;;;4995875;28;20045;-57
2023/03/20 09:46:52;;;;;;;15.98;14.95;;;;;;;;;;4997393;28;20034;-58
2023/03/20 09:49:24;;;;;;;16.30;15.07;;;;;;;;;;4959035;28;20510;-57
2023/03/20 09:51:58;;;;;;;18.38;16.98;;;;;;;;;;4995709;28;20714;-57
2023/03/20 09:54:43;;;;;;;20.02;18.73;;;;;;;;;;4995394;28;20045;-57
2023/03/20 09:57:25;;;;;;;23.08;20.95;;;;;;;;;;4999996;28;20113;-59
2023/03/20 09:59:56;;;;;;;17.23;16.02;;;;;;;;;;4996242;28;20038;-59
2023/03/20 10:02:36;;;;;;;18.20;16.70;;;;;;;;;;4999340;28;20057;-58
2023/03/20 10:05:03;;;;;;;17.40;16.13;;;;;;;;;;4997620;28;20034;-58
2023/03/20 10:07:28;;;;;;;17.17;15.63;;;;;;;;;;4997839;28;20038;-57
2023/03/20 10:09:54;;;;;;;17.55;16.05;;;;;;;;;;4997153;28;20049;-57
2023/03/20 10:12:36;;;;;;;19.67;18.33;;;;;;;;;;4998211;28;20034;-57
2023/03/20 10:15:07;;;;;;;20.90;19.35;;;;;;;;;;4997169;28;20034;-58
2023/03/20 10:17:44;;;;;;;19.08;17.77;;;;;;;;;;4994805;28;20034;-57
2023/03/20 10:20:24;;;;;;;18.00;16.65;;;;;;;;;;5011122;28;20041;-57
2023/03/20 10:22:56;;;;;;;16.33;15.33;;;;;;;;;;4996956;28;20030;-58
2023/03/20 10:25:31;;;;;;;15.10;14.20;;;;;;;;;;4994869;28;20303;-51
2023/03/20 10:27:59;;;;;;;15.23;14.32;;;;;;;;;;4999290;28;20049;-49
2023/03/20 10:30:35;;;;;;;16.33;15.32;;;;;;;;;;4995649;28;20472;-48
2023/03/20 10:33:25;;;;;;;15.05;14.15;;;;;;;;;;4992558;28;20048;-49
2023/03/20 10:36:06;;;;;;;15.75;14.75;;;;;;;;;;4996173;28;20093;-47
2023/03/20 10:38:31;;;;;;;;;;;;;;;;;;4997199;28;20041;-58
2023/03/20 10:40:57;;;;;;;16.90;15.45;;;;;;;;;;4997066;28;19928;-57
2023/03/20 10:43:33;;;;;;;15.60;14.65;;;;;;;;;;4994111;28;20045;-57
2023/03/20 10:46:12;;;;;;;15.60;14.57;;;;;;;;;;4990534;28;20137;-58
2023/03/20 10:48:47;;;;;;;14.18;13.32;;;;;;;;;;4991273;28;20051;-52
2023/03/20 10:51:20;;;;;;;14.02;13.13;;;;;;;;;;4994197;28;20464;-49
2023/03/20 10:53:52;;;;;;;15.15;13.52;;;;;;;;;;4998209;28;20040;-58
2023/03/20 10:56:30;;;;;;;15.73;14.73;;;;;;;;;;5012761;28;20030;-49
2023/03/20 10:59:05;;;;;;;14.45;13.45;;;;;;;;;;4994293;28;20029;-50
2023/03/20 11:01:30;;;;;;;13.77;12.73;;;;;;;;;;4995358;28;20211;-50
2023/03/20 11:03:55;;;;;;;13.65;12.77;;;;;;;;;;4993595;28;20078;-51
2023/03/20 11:06:31;;;;;;;15.57;14.02;;;;;;;;;;4995046;28;20059;-53
2023/03/20 11:09:10;;;;;;;15.27;14.38;;;;;;;;;;4995788;28;20048;-47
2023/03/20 11:11:38;;;;;;;14.13;13.23;;;;;;;;;;4996140;28;20091;-56
2023/03/20 11:14:21;;;;;;;15.80;14.80;;;;;;;;;;4993958;28;20038;-60
2023/03/20 11:16:51;;;;;;;15.65;14.65;;;;;;;;;;4990871;28;20034;-56
2023/03/20 11:19:20;;;;;;;14.00;13.18;;;;;;;;;;4993198;28;20030;-56
2023/03/20 11:21:55;;;;;;;16.88;15.68;;;;;;;;;;4991622;28;20038;-56
2023/03/20 11:24:40;;;;;;;15.32;14.05;;;;;;;;;;4994926;28;20038;-49
2023/03/20 11:27:11;;;;;;;16.42;15.43;;;;;;;;;;4994037;28;20047;-50
2023/03/20 11:29:37;;;;;;;;;;;;;;;;;;4994808;28;20842;-48
2023/03/20 11:32:21;;;;;;;15.82;14.82;;;;;;;;;;4994704;28;19936;-47
2023/03/20 11:34:47;;;;;;;14.45;13.55;;;;;;;;;;4992828;28;20462;-52
2023/03/20 11:37:24;;;;;;;16.23;15.13;;;;;;;;;;4992504;28;20034;-52
2023/03/20 11:39:58;;;;;;;15.40;14.43;;;;;;;;;;4989036;28;20345;-49
2023/03/20 11:42:26;;;;;;;15.57;14.65;;;;;;;;;;4995654;28;20479;-48
2023/03/20 11:45:04;;;;;;;15.48;14.48;;;;;;;;;;4993720;28;20045;-51
2023/03/20 11:47:33;;;;;;;17.08;16.02;;;;;;;;;;4993171;28;20367;-47
2023/03/20 11:50:01;;;;;;;19.08;17.55;;;;;;;;;;4993138;28;20034;-53
2023/03/20 11:52:32;;;;;;;17.58;16.58;;;;;;;;;;4994822;28;20112;-51
2023/03/20 11:55:03;;;;;;;17.67;16.63;;;;;;;;;;5025822;28;20425;-48
2023/03/20 11:57:40;;;;;;;;;;;;;;;;;;4994852;28;20129;-56
2023/03/20 12:00:21;;;;;;;16.52;15.52;;;;;;;;;;4993992;28;19919;-56
2023/03/20 12:02:48;;;;;;;16.60;15.60;;;;;;;;;;4991488;28;20041;-58
2023/03/20 12:05:39;;;;;;;14.43;13.55;;;;;;;;;;5009419;28;20399;-59
2023/03/20 12:08:14;;;;;;;14.43;13.52;;;;;;;;;;4990609;28;20476;-59
2023/03/20 12:10:49;;;;;;;14.23;13.32;;;;;;;;;;4993290;28;20076;-48
2023/03/20 12:13:25;;;;;;;17.45;16.25;;;;;;;;;;4997494;28;20038;-49
2023/03/20 12:15:58;;;;;;;15.25;14.38;;;;;;;;;;4991037;28;20058;-47
2023/03/20 12:18:25;;;;;;;20.88;19.27;;;;;;;;;;4993511;28;20026;-49
2023/03/20 12:21:06;;;;;;;23.10;21.85;;;;;;;;;;4989883;28;20041;-53
2023/03/20 12:23:36;;;;;;;20.10;18.92;;;;;;;;;;4990820;28;20137;-51
2023/03/20 12:26:06;;;;;;;32.25;30.55;;;;;;;;;;4990837;28;20038;-52
2023/03/20 12:28:50;;;;;;;39.03;36.95;;;;;;;;;;4992645;28;20089;-51
2023/03/20 12:31:22;;;;;;;39.28;37.05;;;;;;;;;;4990174;28;20053;-51
2023/03/20 12:34:20;;;;;;;34.95;32.92;;;;;;;;;;4989407;28;20668;-59
2023/03/20 12:36:51;;;;;;;24.10;22.80;;;;;;;;;;4982496;28;20218;-51
2023/03/20 12:39:23;;;;;;;27.35;25.85;;;;;;;;;;4994006;28;20093;-52
2023/03/20 12:42:09;;;;;;;19.42;18.33;;;;;;;;;;4991396;28;20042;-58
2023/03/20 12:45:04;;;;;;;17.85;16.85;;;;;;;;;;4995615;28;20041;-51
2023/03/20 12:47:48;;;;;;;19.90;18.80;;;;;;;;;;4990589;28;20038;-51
2023/03/20 12:50:37;;;;;;;20.63;19.52;;;;;;;;;;4992463;28;20113;-52
2023/03/20 12:53:21;;;;;;;19.02;18.00;;;;;;;;;;4992463;28;20189;-59
2023/03/20 12:56:02;;;;;;;18.13;17.13;;;;;;;;;;4993097;28;20809;-57
2023/03/20 12:58:54;;;;;;;18.02;17.02;;;;;;;;;;4990655;28;20141;-58
2023/03/20 13:01:36;;;;;;;16.30;15.40;;;;;;;;;;4990945;28;20049;-51
2023/03/20 13:04:32;;;;;;;15.82;14.93;;;;;;;;;;4993099;28;20034;-51
2023/03/20 13:07:04;;;;;;;17.30;16.30;;;;;;;;;;4990954;28;20045;-50
2023/03/20 13:09:51;;;;;;;19.30;18.20;;;;;;;;;;4993000;28;20042;-53
2023/03/20 13:12:34;;;;;;;20.30;19.20;;;;;;;;;;4989928;28;20038;-53
2023/03/20 13:15:14;;;;;;;20.35;19.25;;;;;;;;;;4997177;28;20140;-53
2023/03/20 13:17:46;;;;;;;19.73;18.63;;;;;;;;;;4999893;28;20098;-53
2023/03/20 13:20:20;;;;;;;20.92;19.60;;;;;;;;;;4997680;28;20492;-51
2023/03/20 13:22:46;;;;;;;22.60;21.35;;;;;;;;;;4995208;28;20087;-52
2023/03/20 13:25:29;;;;;;;21.73;20.52;;;;;;;;;;4997596;28;20706;-60
2023/03/20 13:28:05;;;;;;;21.45;20.25;;;;;;;;;;4995437;28;20072;-60
2023/03/20 13:30:37;;;;;;;22.83;21.38;;;;;;;;;;4994529;28;20038;-54
2023/03/20 13:33:23;;;;;;;28.83;27.33;;;;;;;;;;4995616;28;20548;-51
2023/03/20 13:36:11;;;;;;;23.30;22.00;;;;;;;;;;4996634;28;20038;-50
2023/03/20 13:38:41;;;;;;;18.20;17.20;;;;;;;;;;4996147;28;20041;-52
2023/03/20 13:41:09;;;;;;;17.83;16.83;;;;;;;;;;4996500;28;20041;-59
2023/03/20 13:43:47;;;;;;;17.70;16.70;;;;;;;;;;4994101;28;20424;-51
2023/03/20 13:46:21;;;;;;;19.70;18.60;;;;;;;;;;4996112;28;20038;-59
2023/03/20 13:48:47;;;;;;;19.15;18.08;;;;;;;;;;4993762;28;20046;-50
2023/03/20 13:51:41;;;;;;;22.73;21.52;;;;;;;;;;4998998;28;20549;-50
2023/03/20 13:54:37;;;;;;;23.52;22.20;;;;;;;;;;4998181;28;20030;-53
2023/03/20 13:57:27;;;;;;;23.88;22.58;;;;;;;;;;4995840;28;20077;-51
2023/03/20 14:00:10;;;;;;;20.75;19.65;;;;;;;;;;4995154;28;20054;-48
2023/03/20 14:02:54;;;;;;;24.17;22.88;;;;;;;;;;4995988;28;20527;-47
2023/03/20 14:05:21;;;;;;;21.13;19.98;;;;;;;;;;4995062;28;20576;-53
2023/03/20 14:07:49;;;;;;;20.60;19.50;;;;;;;;;;5011328;28;20158;-47
2023/03/20 14:10:20;;;;;;;19.10;17.83;;;;;;;;;;5010123;28;20064;-51
2023/03/20 14:12:55;;;;;;;21.85;20.65;;;;;;;;;;4993789;28;20045;-58
2023/03/20 14:15:21;;;;;;;18.80;17.42;;;;;;;;;;4994514;28;20137;-58
2023/03/20 14:17:49;;;;;;;15.95;15.05;;;;;;;;;;4995392;28;20109;-58
2023/03/20 14:20:28;;;;;;;15.82;14.93;;;;;;;;;;4998024;28;20065;-50
2023/03/20 14:22:56;;;;;;;16.17;15.23;;;;;;;;;;4992455;28;20034;-57
2023/03/20 14:25:23;;;;;;;16.73;15.73;;;;;;;;;;4998229;28;20030;-48
2023/03/20 14:27:54;;;;;;;15.05;14.18;;;;;;;;;;4995327;28;20124;-49
2023/03/20 14:30:28;;;;;;;15.35;14.45;;;;;;;;;;4994638;28;20971;-58
2023/03/20 14:33:25;;;;;;;15.95;14.95;;;;;;;;;;4994351;28;20530;-59
2023/03/20 14:36:03;;;;;;;14.45;13.60;;;;;;;;;;4991415;28;20057;-50
2023/03/20 14:38:53;;;;;;;14.73;13.73;;;;;;;;;;4998818;28;20097;-58
2023/03/20 14:41:22;;;;;;;15.40;14.50;;;;;;;;;;4996559;28;20041;-59